createdAt,value
2018-09-01T00:01:44.572Z,11.96
2018-09-01T00:04:15.101Z,11.87
2018-09-01T00:06:45.536Z,12.01
2018-09-01T00:09:15.070Z,11.97
2018-09-01T00:11:44.668Z,11.99
2018-09-01T00:14:14.517Z,11.94
2018-09-01T00:16:42.940Z,11.82
2018-09-01T00:19:11.401Z,11.83
2018-09-01T00:21:41.221Z,11.82
2018-09-01T00:24:10.231Z,11.85
2018-09-01T00:26:42.707Z,11.75
2018-09-01T00:29:19.116Z,11.67
2018-09-01T00:31:48.163Z,11.45
2018-09-01T00:34:17.968Z,11.48
2018-09-01T00:36:46.912Z,11.51
2018-09-01T00:39:16.647Z,11.44
2018-09-01T00:41:47.179Z,11.38
2018-09-01T00:44:19.330Z,11.39
2018-09-01T00:46:48.807Z,11.38
2018-09-01T00:49:19.016Z,11.32
2018-09-01T00:51:48.769Z,11.23
2018-09-01T00:54:18.558Z,11.23
2018-09-01T00:56:49.624Z,11.29
2018-09-01T00:59:20.913Z,11.11
2018-09-01T01:01:50.309Z,11.28
2018-09-01T01:04:19.948Z,11.40
2018-09-01T01:08:13.318Z,11.40
2018-09-01T01:10:41.690Z,11.25
2018-09-01T01:13:15.592Z,11.27
2018-09-01T01:15:46.975Z,11.09
2018-09-01T01:18:16.048Z,11.17
2018-09-01T01:20:45.930Z,11.10
2018-09-01T01:23:16.180Z,11.16
2018-09-01T01:25:47.544Z,11.18
2018-09-01T01:28:20.551Z,11.11
2018-09-01T01:30:49.514Z,11.14
2018-09-01T01:33:20.088Z,11.20
2018-09-01T01:35:50.160Z,11.09
2018-09-01T01:38:19.204Z,11.24
2018-09-01T01:40:49.862Z,11.18
2018-09-01T01:43:18.323Z,11.22
2018-09-01T01:45:48.270Z,11.26
2018-09-01T01:48:17.236Z,10.62
2018-09-01T01:50:46.212Z,10.67
2018-09-01T01:53:15.303Z,10.90
2018-09-01T01:55:44.744Z,10.98
2018-09-01T01:58:18.100Z,10.93
2018-09-01T02:00:46.550Z,10.99
2018-09-01T02:03:15.820Z,10.99
2018-09-01T02:05:45.687Z,10.78
2018-09-01T02:08:15.008Z,10.51
2018-09-01T02:10:44.667Z,10.21
2018-09-01T02:13:13.083Z,10.31
2018-09-01T02:15:42.890Z,10.49
2018-09-01T02:18:11.538Z,10.51
2018-09-01T02:20:40.201Z,10.66
2018-09-01T02:23:10.103Z,10.60
2018-09-01T02:25:39.040Z,10.57
2018-09-01T02:28:08.078Z,10.36
2018-09-01T02:30:38.989Z,10.26
2018-09-01T02:33:08.448Z,10.31
2018-09-01T02:35:37.722Z,10.05
2018-09-01T02:38:07.327Z,10.01
2018-09-01T02:40:35.684Z,10.12
2018-09-01T02:43:05.266Z,10.21
2018-09-01T02:45:34.260Z,10.27
2018-09-01T02:48:03.944Z,10.30
2018-09-01T02:50:33.476Z,10.37
2018-09-01T02:53:02.297Z,10.39
2018-09-01T02:55:33.242Z,10.36
2018-09-01T02:58:02.437Z,10.30
2018-09-01T03:00:37.900Z,10.22
2018-09-01T03:03:07.229Z,10.01
2018-09-01T03:05:36.797Z,9.85
2018-09-01T03:08:07.955Z,9.80
2018-09-01T03:10:36.326Z,9.75
2018-09-01T03:13:05.853Z,9.85
2018-09-01T03:15:34.321Z,9.98
2018-09-01T03:18:02.681Z,10.05
2018-09-01T03:20:32.804Z,9.97
2018-09-01T03:23:01.299Z,9.95
2018-09-01T03:25:30.148Z,9.87
2018-09-01T03:27:58.983Z,9.66
2018-09-01T03:30:29.184Z,9.54
2018-09-01T03:32:58.228Z,9.41
2018-09-01T03:35:27.772Z,9.35
2018-09-01T03:37:56.839Z,9.43
2018-09-01T03:40:26.720Z,9.46
2018-09-01T03:42:56.838Z,9.60
2018-09-01T03:45:25.171Z,9.54
2018-09-01T03:47:54.310Z,9.60
2018-09-01T03:50:22.655Z,9.55
2018-09-01T03:52:51.224Z,9.47
2018-09-01T03:55:21.612Z,9.23
2018-09-01T03:57:52.045Z,9.38
2018-09-01T04:00:25.459Z,9.37
2018-09-01T04:02:54.809Z,9.37
2018-09-01T04:05:24.610Z,9.21
2018-09-01T04:07:53.758Z,9.17
2018-09-01T04:10:24.686Z,9.31
2018-09-01T04:12:53.683Z,9.12
2018-09-01T04:15:22.211Z,9.28
2018-09-01T04:17:51.379Z,9.43
2018-09-01T04:20:20.460Z,9.39
2018-09-01T04:22:50.950Z,9.49
2018-09-01T04:25:20.896Z,9.56
2018-09-01T04:27:50.052Z,9.27
2018-09-01T04:30:20.831Z,9.28
2018-09-01T04:32:52.252Z,9.34
2018-09-01T04:35:21.260Z,9.37
2018-09-01T04:37:49.729Z,9.30
2018-09-01T04:40:19.357Z,9.24
2018-09-01T04:42:50.531Z,7.00
2018-09-01T04:45:21.178Z,9.32
2018-09-01T04:47:50.121Z,9.36
2018-09-01T04:50:19.169Z,9.40
2018-09-01T04:52:48.051Z,9.37
2018-09-01T04:55:16.972Z,9.31
2018-09-01T04:57:47.104Z,9.27
2018-09-01T05:00:22.848Z,9.15
2018-09-01T05:02:54.013Z,9.17
2018-09-01T05:05:22.347Z,9.02
2018-09-01T05:07:51.855Z,9.26
2018-09-01T05:10:21.282Z,9.28
2018-09-01T05:12:51.835Z,9.25
2018-09-01T05:15:20.185Z,9.13
2018-09-01T05:17:49.187Z,9.15
2018-09-01T05:20:18.827Z,9.26
2018-09-01T05:22:47.683Z,9.42
2018-09-01T05:25:17.508Z,9.53
2018-09-01T05:27:48.411Z,9.64
2018-09-01T05:30:18.449Z,9.76
2018-09-01T05:32:48.152Z,9.89
2018-09-01T05:35:16.794Z,9.88
2018-09-01T05:37:46.382Z,10.02
2018-09-01T05:40:15.397Z,10.36
2018-09-01T05:42:44.780Z,10.53
2018-09-01T05:45:16.733Z,10.93
2018-09-01T05:47:45.627Z,11.53
2018-09-01T05:50:15.548Z,11.79
2018-09-01T05:52:44.963Z,11.69
2018-09-01T05:55:14.587Z,12.12
2018-09-01T05:57:44.058Z,12.42
2018-09-01T06:00:13.462Z,12.33
2018-09-01T06:02:43.090Z,12.07
2018-09-01T06:05:11.600Z,12.55
2018-09-01T06:07:42.941Z,12.84
2018-09-01T06:10:13.639Z,13.26
2018-09-01T06:12:42.968Z,13.15
2018-09-01T06:15:12.859Z,13.10
2018-09-01T06:17:55.506Z,13.51
2018-09-01T06:20:24.680Z,13.74
2018-09-01T06:22:54.464Z,14.05
2018-09-01T06:25:24.592Z,14.39
2018-09-01T06:27:54.798Z,14.93
2018-09-01T06:30:33.660Z,15.17
2018-09-01T06:33:04.253Z,15.60
2018-09-01T06:35:34.836Z,15.60
2018-09-01T06:38:03.451Z,15.67
2018-09-01T06:40:33.661Z,15.91
2018-09-01T06:43:06.838Z,16.28
2018-09-01T06:45:36.924Z,16.90
2018-09-01T06:48:06.569Z,17.50
2018-09-01T06:50:37.729Z,17.52
2018-09-01T06:53:07.045Z,17.35
2018-09-01T06:55:39.351Z,17.58
2018-09-01T06:58:10.137Z,17.49
2018-09-01T07:00:40.116Z,18.10
2018-09-01T07:03:09.185Z,19.08
2018-09-01T07:05:38.132Z,19.03
2018-09-01T07:08:07.747Z,19.96
2018-09-01T07:10:37.048Z,19.98
2018-09-01T07:13:08.460Z,19.82
2018-09-01T07:15:40.286Z,19.91
2018-09-01T07:18:12.550Z,18.36
2018-09-01T07:20:41.317Z,19.05
2018-09-01T07:23:14.420Z,19.89
2018-09-01T07:25:42.787Z,19.06
2018-09-01T07:28:11.392Z,19.67
2018-09-01T07:30:42.306Z,20.26
2018-09-01T07:33:12.193Z,20.63
2018-09-01T07:35:46.217Z,20.99
2018-09-01T07:38:17.892Z,20.80
2018-09-01T07:40:47.852Z,20.72
2018-09-01T07:43:17.853Z,22.20
2018-09-01T07:45:49.208Z,21.68
2018-09-01T07:48:24.028Z,21.65
2018-09-01T07:50:54.688Z,21.82
2018-09-01T07:53:23.543Z,20.95
2018-09-01T07:55:56.048Z,21.67
2018-09-01T07:58:26.953Z,22.21
2018-09-01T08:00:56.346Z,22.24
2018-09-01T08:03:30.942Z,21.86
2018-09-01T08:06:05.462Z,21.16
2018-09-01T08:08:33.940Z,21.90
2018-09-01T08:11:02.904Z,21.40
2018-09-01T08:13:31.986Z,21.26
2018-09-01T08:16:03.399Z,22.19
2018-09-01T08:18:36.879Z,22.33
2018-09-01T08:21:07.376Z,22.64
2018-09-01T08:23:41.272Z,22.32
2018-09-01T08:26:14.454Z,22.49
2018-09-01T08:28:43.829Z,21.37
2018-09-01T08:31:17.484Z,21.71
2018-09-01T08:33:48.792Z,22.38
2018-09-01T08:36:18.965Z,20.05
2018-09-01T08:38:48.543Z,21.16
2018-09-01T08:41:17.545Z,21.34
2018-09-01T08:43:47.742Z,22.22
2018-09-01T08:46:16.137Z,20.52
2018-09-01T08:48:45.345Z,21.08
2018-09-01T08:51:18.932Z,22.45
2018-09-01T08:54:06.980Z,22.12
2018-09-01T08:56:43.566Z,22.32
2018-09-01T08:59:12.495Z,21.47
2018-09-01T09:01:43.986Z,22.35
2018-09-01T09:04:14.995Z,22.67
2018-09-01T09:06:45.452Z,21.10
2018-09-01T09:09:13.812Z,22.67
2018-09-01T09:11:42.324Z,22.29
2018-09-01T09:14:11.992Z,22.63
2018-09-01T09:16:40.633Z,23.21
2018-09-01T09:19:09.199Z,23.14
2018-09-01T09:21:37.706Z,22.12
2018-09-01T09:24:08.441Z,22.93
2018-09-01T09:26:36.859Z,23.59
2018-09-01T09:29:07.180Z,22.40
2018-09-01T09:31:36.236Z,22.75
2018-09-01T09:34:05.072Z,23.70
2018-09-01T09:36:33.908Z,22.75
2018-09-01T09:39:06.063Z,22.62
2018-09-01T09:41:34.509Z,21.58
2018-09-01T09:44:02.942Z,21.82
2018-09-01T09:46:31.820Z,21.21
2018-09-01T09:49:00.227Z,21.35
2018-09-01T09:51:30.072Z,22.35
2018-09-01T09:53:59.248Z,22.87
2018-09-01T09:56:28.692Z,22.43
2018-09-01T09:58:57.547Z,22.63
2018-09-01T10:01:37.856Z,21.17
2018-09-01T10:04:06.543Z,22.13
2018-09-01T10:06:37.607Z,21.64
2018-09-01T10:09:11.671Z,22.10
2018-09-01T10:11:41.587Z,21.81
2018-09-01T10:14:10.169Z,21.44
2018-09-01T10:16:39.147Z,21.09
2018-09-01T10:19:08.324Z,21.39
2018-09-01T10:21:37.143Z,21.01
2018-09-01T10:24:06.551Z,21.71
2018-09-01T10:26:36.303Z,22.22
2018-09-01T10:29:04.628Z,21.36
2018-09-01T10:31:33.027Z,20.89
2018-09-01T10:34:02.053Z,20.08
2018-09-01T10:36:30.399Z,20.79
2018-09-01T10:38:59.567Z,21.42
2018-09-01T10:41:28.425Z,20.80
2018-09-01T10:43:56.808Z,21.09
2018-09-01T10:46:25.750Z,21.10
2018-09-01T10:48:55.408Z,21.55
2018-09-01T10:51:23.858Z,23.26
2018-09-01T10:53:52.306Z,24.12
2018-09-01T10:56:20.894Z,22.53
2018-09-01T10:58:50.343Z,22.14
2018-09-01T11:01:19.393Z,22.09
2018-09-01T11:03:48.961Z,22.41
2018-09-01T11:06:17.353Z,21.78
2018-09-01T11:08:46.958Z,22.70
2018-09-01T11:11:15.357Z,22.65
2018-09-01T11:13:44.300Z,22.35
2018-09-01T11:16:14.517Z,21.55
2018-09-01T11:18:42.932Z,20.57
2018-09-01T11:21:11.488Z,21.06
2018-09-01T11:23:40.129Z,20.70
2018-09-01T11:26:08.503Z,21.45
2018-09-01T11:28:36.881Z,21.65
2018-09-01T11:31:05.548Z,20.94
2018-09-01T11:33:34.733Z,21.77
2018-09-01T11:36:04.706Z,22.92
2018-09-01T11:38:33.926Z,23.68
2018-09-01T11:41:02.587Z,24.35
2018-09-01T11:43:32.208Z,24.93
2018-09-01T11:46:00.555Z,23.77
2018-09-01T11:48:29.251Z,24.26
2018-09-01T11:50:58.154Z,24.51
2018-09-01T11:53:26.586Z,23.29
2018-09-01T11:55:55.193Z,23.90
2018-09-01T11:58:23.508Z,24.13
2018-09-01T12:00:53.247Z,25.23
2018-09-01T12:03:22.561Z,24.86
2018-09-01T12:05:50.999Z,25.88
2018-09-01T12:08:22.892Z,25.04
2018-09-01T12:10:52.215Z,24.37
2018-09-01T12:13:20.579Z,22.63
2018-09-01T12:15:49.699Z,24.66
2018-09-01T12:18:17.969Z,25.25
2018-09-01T12:20:46.642Z,24.74
2018-09-01T12:23:16.489Z,23.68
2018-09-01T12:25:45.155Z,23.51
2018-09-01T12:28:13.900Z,22.96
2018-09-01T12:30:44.047Z,22.86
2018-09-01T12:33:17.580Z,21.58
2018-09-01T12:35:48.172Z,20.76
2018-09-01T12:38:16.848Z,21.18
2018-09-01T12:40:45.934Z,21.19
2018-09-01T12:43:22.106Z,22.50
2018-09-01T12:45:59.538Z,23.17
2018-09-01T12:48:34.707Z,24.25
2018-09-01T12:51:12.512Z,23.45
2018-09-01T12:53:50.152Z,25.09
2018-09-01T12:56:28.771Z,23.18
2018-09-01T12:59:00.829Z,22.95
2018-09-01T13:01:31.195Z,22.49
2018-09-01T13:04:01.833Z,21.75
2018-09-01T13:06:36.424Z,21.13
2018-09-01T13:09:06.815Z,21.20
2018-09-01T13:11:35.268Z,20.87
2018-09-01T13:14:05.097Z,21.53
2018-09-01T13:16:37.345Z,23.00
2018-09-01T13:19:05.785Z,23.98
2018-09-01T13:21:38.304Z,25.05
2018-09-01T13:24:08.272Z,23.26
2018-09-01T13:26:39.913Z,21.71
2018-09-01T13:29:09.706Z,21.57
2018-09-01T13:31:42.724Z,20.81
2018-09-01T13:34:13.431Z,20.59
2018-09-01T13:36:45.936Z,20.80
2018-09-01T13:39:15.456Z,20.53
2018-09-01T13:41:45.832Z,20.53
2018-09-01T13:44:17.954Z,20.48
2018-09-01T13:46:54.962Z,21.11
2018-09-01T13:49:27.516Z,21.69
2018-09-01T13:52:00.019Z,22.92
2018-09-01T13:54:30.858Z,22.98
2018-09-01T13:57:02.513Z,22.75
2018-09-01T13:59:34.269Z,22.49
2018-09-01T14:02:05.179Z,21.91
2018-09-01T14:04:34.533Z,20.90
2018-09-01T14:07:06.654Z,20.56
2018-09-01T14:09:35.088Z,20.65
2018-09-01T14:12:05.017Z,20.37
2018-09-01T14:14:35.171Z,20.60
2018-09-01T14:17:09.099Z,21.16
2018-09-01T14:19:37.424Z,21.36
2018-09-01T14:22:05.923Z,21.44
2018-09-01T14:24:34.244Z,21.17
2018-09-01T14:27:02.580Z,21.85
2018-09-01T14:29:30.914Z,22.08
2018-09-01T14:31:59.284Z,21.82
2018-09-01T14:34:27.588Z,21.12
2018-09-01T14:36:55.940Z,21.31
2018-09-01T14:39:24.286Z,21.07
2018-09-01T14:41:52.674Z,20.42
2018-09-01T14:44:21.920Z,20.27
2018-09-01T14:46:50.362Z,20.32
2018-09-01T14:49:18.638Z,20.82
2018-09-01T14:51:46.974Z,21.10
2018-09-01T14:54:15.304Z,21.09
2018-09-01T14:56:43.657Z,21.26
2018-09-01T14:59:12.002Z,21.28
2018-09-01T15:01:40.357Z,21.33
2018-09-01T15:04:08.688Z,21.11
2018-09-01T15:06:38.529Z,21.29
2018-09-01T15:09:07.457Z,21.39
2018-09-01T15:11:36.341Z,20.68
2018-09-01T15:14:05.477Z,20.88
2018-09-01T15:16:33.884Z,21.11
2018-09-01T15:19:02.927Z,21.15
2018-09-01T15:21:31.581Z,21.07
2018-09-01T15:24:00.008Z,21.03
2018-09-01T15:26:29.829Z,21.26
2018-09-01T15:29:00.608Z,21.10
2018-09-01T15:31:29.408Z,21.32
2018-09-01T15:33:58.676Z,20.98
2018-09-01T15:36:31.220Z,20.78
2018-09-01T15:38:59.833Z,20.73
2018-09-01T15:41:34.154Z,20.54
2018-09-01T15:44:03.960Z,20.25
2018-09-01T15:46:38.459Z,20.09
2018-09-01T15:49:23.808Z,20.12
2018-09-01T15:51:55.590Z,20.50
2018-09-01T15:54:33.738Z,20.35
2018-09-01T15:57:09.977Z,20.43
2018-09-01T15:59:42.936Z,20.25
2018-09-01T16:02:24.637Z,20.41
2018-09-01T16:04:56.588Z,20.44
2018-09-01T16:07:28.837Z,20.55
2018-09-01T16:10:08.086Z,20.63
2018-09-01T16:12:53.341Z,20.78
2018-09-01T16:15:28.284Z,20.74
2018-09-01T16:17:59.732Z,20.89
2018-09-01T16:20:32.612Z,20.79
2018-09-01T16:23:02.041Z,21.03
2018-09-01T16:25:32.478Z,21.08
2018-09-01T16:28:06.277Z,21.06
2018-09-01T16:30:36.884Z,20.95
2018-09-01T16:33:07.364Z,20.66
2018-09-01T16:38:16.936Z,20.43
2018-09-01T16:40:48.127Z,20.12
2018-09-01T16:43:18.440Z,20.22
2018-09-01T16:45:49.616Z,20.13
2018-09-01T16:48:23.887Z,20.07
2018-09-01T16:50:55.346Z,19.94
2018-09-01T16:53:29.448Z,20.09
2018-09-01T16:56:02.506Z,20.00
2018-09-01T16:58:33.541Z,20.00
2018-09-01T17:01:04.593Z,20.23
2018-09-01T17:03:36.300Z,20.14
2018-09-01T17:06:11.638Z,20.12
2018-09-01T17:08:48.812Z,20.10
2018-09-01T17:11:18.697Z,20.02
2018-09-01T17:13:48.631Z,19.96
2018-09-01T17:16:34.024Z,20.05
2018-09-01T17:19:08.290Z,19.97
2018-09-01T17:21:44.415Z,19.84
2018-09-01T17:24:13.848Z,19.79
2018-09-01T17:26:43.150Z,19.80
2018-09-01T17:29:16.543Z,19.64
2018-09-01T17:31:46.104Z,19.65
2018-09-01T17:34:18.129Z,19.62
2018-09-01T17:36:50.094Z,19.59
2018-09-01T17:39:19.825Z,19.42
2018-09-01T17:41:51.216Z,19.31
2018-09-01T17:44:19.677Z,19.37
2018-09-01T17:46:49.084Z,19.29
2018-09-01T17:49:18.311Z,19.22
2018-09-01T17:51:48.107Z,19.14
2018-09-01T17:54:18.516Z,19.01
2018-09-01T17:56:48.900Z,18.95
2018-09-01T17:59:23.190Z,18.89
2018-09-01T18:01:54.900Z,18.76
2018-09-01T18:04:24.633Z,18.56
2018-09-01T18:06:54.917Z,18.55
2018-09-01T18:09:25.373Z,18.34
2018-09-01T18:11:55.731Z,18.16
2018-09-01T18:14:33.548Z,17.92
2018-09-01T18:17:04.571Z,17.81
2018-09-01T18:19:33.536Z,17.67
2018-09-01T18:22:03.625Z,17.37
2018-09-01T18:24:39.455Z,17.12
2018-09-01T18:27:08.451Z,17.23
2018-09-01T18:29:39.059Z,16.74
2018-09-01T18:32:13.754Z,16.58
2018-09-01T18:34:56.841Z,16.45
2018-09-01T18:37:25.613Z,16.33
2018-09-01T18:39:54.283Z,16.21
2018-09-01T18:42:23.688Z,16.23
2018-09-01T18:44:52.112Z,15.85
2018-09-01T18:47:21.613Z,15.96
2018-09-01T18:49:51.051Z,15.67
2018-09-01T18:52:20.324Z,15.63
2018-09-01T18:54:49.542Z,15.57
2018-09-01T18:57:18.126Z,15.38
2018-09-01T18:59:47.206Z,15.12
2018-09-01T19:02:15.879Z,14.95
2018-09-01T19:04:44.495Z,15.15
2018-09-01T19:07:13.736Z,14.92
2018-09-01T19:09:42.976Z,14.93
2018-09-01T19:12:12.556Z,14.87
2018-09-01T19:14:41.668Z,14.81
2018-09-01T19:17:10.529Z,14.77
2018-09-01T19:19:38.892Z,14.72
2018-09-01T19:22:07.647Z,14.70
2018-09-01T19:24:36.409Z,14.67
2018-09-01T19:27:04.983Z,14.73
2018-09-01T19:29:34.118Z,14.45
2018-09-01T19:32:03.737Z,14.43
2018-09-01T19:34:34.376Z,14.60
2018-09-01T19:37:02.732Z,14.16
2018-09-01T19:39:31.114Z,14.29
2018-09-01T19:41:59.456Z,14.27
2018-09-01T19:44:29.775Z,14.29
2018-09-01T19:46:58.945Z,14.20
2018-09-01T19:49:27.533Z,14.12
2018-09-01T19:51:56.092Z,14.07
2018-09-01T19:54:24.717Z,14.19
2018-09-01T19:56:58.769Z,14.03
2018-09-01T19:59:30.601Z,13.90
2018-09-01T20:02:04.575Z,13.83
2018-09-01T20:04:37.102Z,13.96
2018-09-01T20:07:09.011Z,13.87
2018-09-01T20:09:39.928Z,13.53
2018-09-01T20:12:12.727Z,13.75
2018-09-01T20:14:49.117Z,13.69
2018-09-01T20:17:20.427Z,13.54
2018-09-01T20:19:50.818Z,13.54
2018-09-01T20:22:25.224Z,13.35
2018-09-01T20:24:59.641Z,13.43
2018-09-01T20:27:35.472Z,13.43
2018-09-01T20:30:11.829Z,13.56
2018-09-01T20:32:43.791Z,13.25
2018-09-01T20:35:20.051Z,13.39
2018-09-01T20:37:50.712Z,13.30
2018-09-01T20:40:20.885Z,13.32
2018-09-01T20:42:52.189Z,13.22
2018-09-01T20:45:22.160Z,13.29
2018-09-01T20:47:54.114Z,13.20
2018-09-01T20:50:24.417Z,13.23
2018-09-01T20:52:55.575Z,13.46
2018-09-01T20:55:29.285Z,13.28
2018-09-01T20:58:03.482Z,13.35
2018-09-01T21:00:37.728Z,13.37
2018-09-01T21:03:13.061Z,13.31
2018-09-01T21:05:48.755Z,13.19
2018-09-01T21:08:20.528Z,13.11
2018-09-01T21:10:55.042Z,12.83
2018-09-01T21:13:25.863Z,12.85
2018-09-01T21:15:59.093Z,12.75
2018-09-01T21:21:16.237Z,12.59
2018-09-01T21:23:44.730Z,12.69
2018-09-01T21:26:13.218Z,12.74
2018-09-01T21:28:41.792Z,12.77
2018-09-01T21:31:10.321Z,12.61
2018-09-01T21:33:38.894Z,12.57
2018-09-01T21:36:07.423Z,12.59
2018-09-01T21:38:35.964Z,12.56
2018-09-01T21:41:04.543Z,12.46
2018-09-01T21:43:33.177Z,12.37
2018-09-01T21:46:01.859Z,12.42
2018-09-01T21:48:30.328Z,12.37
2018-09-01T21:50:58.918Z,12.30
2018-09-01T21:53:27.487Z,12.24
2018-09-01T21:55:56.093Z,12.08
2018-09-01T21:58:24.621Z,11.95
2018-09-01T22:00:53.354Z,11.96
2018-09-01T22:03:22.623Z,11.85
2018-09-01T22:05:51.198Z,11.94
2018-09-01T22:08:19.661Z,11.91
2018-09-01T22:10:48.753Z,11.96
2018-09-01T22:13:17.322Z,11.97
2018-09-01T22:15:45.806Z,11.95
2018-09-01T22:18:14.354Z,11.92
2018-09-01T22:20:43.503Z,11.77
2018-09-01T22:23:14.310Z,11.59
2018-09-01T22:25:42.895Z,11.59
2018-09-01T22:28:11.524Z,11.57
2018-09-01T22:30:40.035Z,11.57
2018-09-01T22:33:09.187Z,11.42
2018-09-01T22:35:37.777Z,11.41
2018-09-01T22:38:06.471Z,11.41
2018-09-01T22:40:35.004Z,11.36
2018-09-01T22:43:03.515Z,11.35
2018-09-01T22:45:32.040Z,11.20
2018-09-01T22:48:00.995Z,11.18
2018-09-01T22:50:29.506Z,11.18
2018-09-01T22:52:58.933Z,11.18
2018-09-01T22:55:27.589Z,11.18
2018-09-01T22:57:56.140Z,11.10
2018-09-01T23:00:24.714Z,11.09
2018-09-01T23:02:53.298Z,10.99
2018-09-01T23:05:22.348Z,10.95
2018-09-01T23:07:50.988Z,10.89
2018-09-01T23:10:19.546Z,10.90
2018-09-01T23:12:48.071Z,10.96
2018-09-01T23:15:17.283Z,10.88
2018-09-01T23:17:45.973Z,10.88
2018-09-01T23:20:14.608Z,10.77
2018-09-01T23:22:43.139Z,10.80
2018-09-01T23:25:11.647Z,10.66
2018-09-01T23:27:40.308Z,10.56
2018-09-01T23:30:09.293Z,10.46
2018-09-01T23:32:38.596Z,10.49
2018-09-01T23:35:07.133Z,10.55
2018-09-01T23:37:38.253Z,10.61
2018-09-01T23:40:06.724Z,10.63
2018-09-01T23:42:35.571Z,10.69
2018-09-01T23:45:04.438Z,10.76
2018-09-01T23:47:33.057Z,10.72
2018-09-01T23:50:01.530Z,10.61
2018-09-01T23:52:30.144Z,10.49
2018-09-01T23:54:58.704Z,10.26
2018-09-01T23:57:27.294Z,10.31
2018-09-01T23:59:56.009Z,10.33
